createdAt,value
2023-03-23T00:00:30.158Z,96125.13
2023-03-23T00:02:56.706Z,96128.38
2023-03-23T00:05:23.248Z,96136.31
2023-03-23T00:07:49.766Z,96135.59
2023-03-23T00:10:16.311Z,96132.59
2023-03-23T00:12:43.097Z,96126.75
2023-03-23T00:15:09.902Z,96125.91
2023-03-23T00:17:36.431Z,96117.88
2023-03-23T00:20:02.987Z,96123.63
2023-03-23T00:22:29.560Z,96118.38
2023-03-23T00:24:56.168Z,96124.44
2023-03-23T00:27:22.724Z,96122.00
2023-03-23T00:29:49.294Z,96118.00
2023-03-23T00:32:16.021Z,96117.06
2023-03-23T00:34:42.567Z,96102.19
2023-03-23T00:37:09.119Z,96114.72
2023-03-23T00:39:35.963Z,96116.75
2023-03-23T00:42:02.584Z,96115.25
2023-03-23T00:44:29.152Z,96117.56
2023-03-23T00:46:55.725Z,96110.81
2023-03-23T00:49:22.276Z,96101.75
2023-03-23T00:51:48.817Z,96095.28
2023-03-23T00:54:15.561Z,96101.56
2023-03-23T00:56:42.262Z,96091.53
2023-03-23T00:59:08.839Z,96087.22
2023-03-23T05:06:25.025Z,96028.13
2023-03-23T05:08:51.563Z,96017.72
2023-03-23T05:11:18.115Z,96018.66
2023-03-23T05:13:44.667Z,96009.38
2023-03-23T05:16:11.209Z,96019.50
2023-03-23T05:18:37.761Z,96021.09
2023-03-23T05:21:04.318Z,96015.13
2023-03-23T05:23:30.865Z,96002.13
2023-03-23T05:25:57.419Z,95997.50
2023-03-23T05:28:23.963Z,95998.16
2023-03-23T05:30:50.513Z,95998.31
2023-03-23T05:33:17.062Z,95997.78
2023-03-23T05:35:43.795Z,95995.16
2023-03-23T05:38:10.448Z,96002.34
2023-03-23T05:40:36.980Z,95999.41
2023-03-23T05:43:03.523Z,95999.78
2023-03-23T05:45:30.112Z,95996.63
2023-03-23T05:47:56.793Z,96001.00
2023-03-23T05:50:23.355Z,96014.13
2023-03-23T05:52:49.904Z,96013.78
2023-03-23T05:55:16.459Z,96015.78
2023-03-23T05:57:43.020Z,96025.81
2023-03-23T06:00:09.567Z,96023.00
2023-03-23T06:02:36.151Z,96044.28
2023-03-23T06:05:02.765Z,96040.84
2023-03-23T06:07:29.429Z,96045.00
2023-03-23T06:09:55.972Z,96035.22
2023-03-23T06:12:22.548Z,96036.03
2023-03-23T06:14:49.081Z,96044.28
2023-03-23T06:17:15.647Z,96030.81
2023-03-23T06:19:42.189Z,96038.31
2023-03-23T06:22:08.741Z,96048.41
2023-03-23T06:24:35.285Z,96046.47
2023-03-23T06:27:01.851Z,96044.00
2023-03-23T06:29:28.382Z,96047.66
2023-03-23T06:31:54.939Z,96052.25
2023-03-23T06:34:21.481Z,96055.13
2023-03-23T06:36:48.022Z,96062.84
2023-03-23T06:39:14.549Z,96055.25
2023-03-23T06:41:41.087Z,96056.47
2023-03-23T06:44:07.647Z,96052.72
2023-03-23T06:46:34.204Z,96057.41
2023-03-23T06:49:00.764Z,96060.06
2023-03-23T06:51:27.304Z,96065.66
2023-03-23T06:53:53.847Z,96063.19
2023-03-23T06:56:20.396Z,96057.22
2023-03-23T06:58:46.918Z,96064.72
2023-03-23T07:01:13.445Z,96065.50
2023-03-23T07:03:40.051Z,96056.84
2023-03-23T07:06:07.091Z,96061.00
2023-03-23T07:08:33.644Z,96062.25
2023-03-23T07:11:00.198Z,96058.06
2023-03-23T07:13:26.779Z,96053.78
2023-03-23T07:15:53.330Z,96049.34
2023-03-23T07:18:19.855Z,96062.91
2023-03-23T07:20:46.404Z,96073.34
2023-03-23T07:25:40.177Z,96086.34
2023-03-23T07:28:06.976Z,96093.34
2023-03-23T07:30:33.543Z,96095.03
2023-03-23T07:33:00.407Z,96094.31
2023-03-23T07:35:27.052Z,96101.72
2023-03-23T07:37:53.580Z,96109.66
2023-03-23T07:40:26.500Z,96121.91
2023-03-23T07:42:53.052Z,96119.97
2023-03-23T07:45:19.586Z,96112.63
2023-03-23T07:47:46.228Z,96116.03
2023-03-23T07:50:12.881Z,96118.47
2023-03-23T07:52:39.428Z,96114.84
2023-03-23T07:55:06.037Z,96118.91
2023-03-23T07:57:32.571Z,96127.91
2023-03-23T07:59:59.094Z,96121.91
2023-03-23T08:02:25.646Z,96118.53
2023-03-23T08:04:52.193Z,96115.19
2023-03-23T08:07:20.022Z,96115.09
2023-03-23T08:09:46.660Z,96117.84
2023-03-23T08:12:13.206Z,96125.16
2023-03-23T08:14:39.843Z,96116.19
2023-03-23T08:17:06.399Z,96119.69
2023-03-23T08:19:32.937Z,96114.78
2023-03-23T08:21:59.487Z,96119.09
2023-03-23T08:24:26.040Z,96112.63
2023-03-23T08:26:52.604Z,96113.63
2023-03-23T08:29:19.152Z,96109.31
2023-03-23T08:31:45.732Z,96112.38
2023-03-23T08:34:12.937Z,96114.06
2023-03-23T08:36:43.437Z,96105.66
2023-03-23T08:39:09.990Z,96116.75
2023-03-23T08:41:36.543Z,96124.13
2023-03-23T08:44:03.085Z,96127.00
2023-03-23T08:46:29.611Z,96127.47
2023-03-23T08:48:56.175Z,96129.47
2023-03-23T08:51:22.878Z,96125.34
2023-03-23T08:53:49.431Z,96128.75
2023-03-23T08:56:15.983Z,96127.66
2023-03-23T08:58:42.547Z,96129.41
2023-03-23T09:01:09.089Z,96126.94
2023-03-23T09:03:35.626Z,96122.38
2023-03-23T09:06:02.159Z,96118.53
2023-03-23T09:08:28.707Z,96123.78
2023-03-23T09:10:55.266Z,96128.28
2023-03-23T09:13:21.801Z,96121.72
2023-03-23T09:15:55.129Z,96126.56
2023-03-23T09:18:22.102Z,96117.94
2023-03-23T09:20:48.651Z,96122.81
2023-03-23T09:23:15.171Z,96114.06
2023-03-23T09:25:41.827Z,96115.28
2023-03-23T09:28:08.489Z,96107.97
2023-03-23T09:30:39.374Z,96109.88
2023-03-23T09:33:11.293Z,96115.97
2023-03-23T09:35:37.862Z,96118.84
2023-03-23T09:38:04.418Z,96126.47
2023-03-23T09:40:30.972Z,96126.56
2023-03-23T09:42:57.497Z,96127.59
2023-03-23T09:45:24.074Z,96134.81
2023-03-23T09:47:50.628Z,96137.09
2023-03-23T09:50:17.174Z,96136.47
2023-03-23T09:52:43.733Z,96134.19
2023-03-23T09:55:10.297Z,96137.59
2023-03-23T09:57:36.840Z,96129.69
2023-03-23T10:00:03.462Z,96138.16
2023-03-23T10:02:30.044Z,96131.72
2023-03-23T10:04:56.592Z,96134.38
2023-03-23T10:07:23.127Z,96134.66
2023-03-23T10:09:49.684Z,96128.19
2023-03-23T10:12:16.230Z,96127.72
2023-03-23T10:14:42.777Z,96125.28
2023-03-23T10:17:11.068Z,96123.47
2023-03-23T10:19:37.675Z,96123.53
2023-03-23T10:22:04.237Z,96123.19
2023-03-23T10:24:30.802Z,96125.84
2023-03-23T10:26:57.360Z,96130.38
2023-03-23T10:29:23.906Z,96126.94
2023-03-23T10:31:50.470Z,96128.91
2023-03-23T10:34:17.000Z,96125.97
2023-03-23T10:36:43.566Z,96123.66
2023-03-23T10:39:10.096Z,96121.72
2023-03-23T10:41:36.638Z,96124.44
2023-03-23T10:44:03.177Z,96133.81
2023-03-23T10:46:32.116Z,96127.81
2023-03-23T10:48:59.708Z,96132.13
2023-03-23T10:51:26.247Z,96125.28
2023-03-23T10:53:52.802Z,96121.84
2023-03-23T10:56:19.357Z,96119.47
2023-03-23T10:58:45.919Z,96119.41
2023-03-23T11:01:12.474Z,96111.72
2023-03-23T11:03:39.020Z,96110.44
2023-03-23T11:06:05.603Z,96119.09
2023-03-23T11:08:32.129Z,96107.78
2023-03-23T11:10:58.683Z,96098.69
2023-03-23T11:13:25.217Z,96100.28
2023-03-23T11:15:51.761Z,96098.69
2023-03-23T11:18:18.312Z,96119.09
2023-03-23T11:20:44.849Z,96107.78
2023-03-23T11:23:11.413Z,96118.03
2023-03-23T11:25:37.961Z,96104.41
2023-03-23T11:28:04.497Z,96105.03
2023-03-23T11:30:31.060Z,96108.47
2023-03-23T11:32:57.624Z,96104.81
2023-03-23T11:35:24.160Z,96120.34
2023-03-23T11:37:50.887Z,96113.91
2023-03-23T11:40:17.440Z,96107.66
2023-03-23T11:42:43.988Z,96104.09
2023-03-23T11:45:10.533Z,96107.19
2023-03-23T11:47:37.069Z,96113.97
2023-03-23T11:50:03.669Z,96123.75
2023-03-23T11:52:30.216Z,96126.78
2023-03-23T11:54:56.762Z,96133.38
2023-03-23T11:57:23.333Z,96116.28
2023-03-23T11:59:49.867Z,96117.78
2023-03-23T12:02:17.278Z,96111.09
2023-03-23T12:04:43.983Z,96113.91
2023-03-23T12:07:10.564Z,96113.63
2023-03-23T12:09:37.140Z,96125.34
2023-03-23T12:12:03.714Z,96138.59
2023-03-23T12:14:36.544Z,96131.44
2023-03-23T12:17:04.840Z,96137.88
2023-03-23T12:19:31.376Z,96135.63
2023-03-23T12:21:57.924Z,96137.53
2023-03-23T12:24:24.479Z,96145.13
2023-03-23T12:26:51.060Z,96151.03
2023-03-23T12:29:17.612Z,96133.44
2023-03-23T12:34:30.644Z,96150.25
2023-03-23T12:36:57.185Z,96150.09
2023-03-23T12:39:23.740Z,96151.94
2023-03-23T12:41:50.313Z,96133.25
2023-03-23T12:44:16.875Z,96120.91
2023-03-23T12:46:43.427Z,96129.16
2023-03-23T12:49:09.969Z,96131.47
2023-03-23T12:51:36.501Z,96143.22
2023-03-23T12:54:03.102Z,96146.66
2023-03-23T12:56:29.684Z,96135.69
2023-03-23T12:58:56.221Z,96142.91
2023-03-23T13:01:22.775Z,96148.22
2023-03-23T13:03:49.338Z,96130.00
2023-03-23T13:06:15.905Z,96132.25
2023-03-23T13:08:42.471Z,96123.09
2023-03-23T13:11:09.002Z,96117.69
2023-03-23T13:13:40.880Z,96113.88
2023-03-23T13:16:09.228Z,96113.88
2023-03-23T13:18:36.200Z,96119.09
2023-03-23T13:21:02.734Z,96126.78
2023-03-23T13:23:29.319Z,96119.97
2023-03-23T13:25:55.875Z,96124.91
2023-03-23T13:28:22.452Z,96121.47
2023-03-23T13:30:49.037Z,96134.44
2023-03-23T13:33:15.611Z,96135.69
2023-03-23T13:35:42.391Z,96122.63
2023-03-23T13:38:09.075Z,96111.22
2023-03-23T13:40:35.622Z,96118.53
2023-03-23T13:43:02.165Z,96121.47
2023-03-23T13:45:28.712Z,96122.63
2023-03-23T13:47:55.290Z,96135.63
2023-03-23T13:50:21.855Z,96126.50
2023-03-23T13:52:48.430Z,96127.66
2023-03-23T13:55:15.000Z,96132.59
2023-03-23T13:57:41.537Z,96122.25
2023-03-23T14:00:08.084Z,96116.84
2023-03-23T14:02:34.650Z,96116.72
2023-03-23T14:05:01.227Z,96123.16
2023-03-23T14:07:27.799Z,96113.97
2023-03-23T14:09:54.343Z,96114.41
2023-03-23T14:12:20.977Z,96112.47
2023-03-23T14:14:47.527Z,96120.06
2023-03-23T14:17:14.066Z,96121.19
2023-03-23T14:19:40.618Z,96124.56
2023-03-23T14:22:07.161Z,96115.50
2023-03-23T14:24:33.699Z,96116.72
2023-03-23T14:27:00.287Z,96121.13
2023-03-23T14:29:26.859Z,96112.84
2023-03-23T14:31:53.438Z,96110.06
2023-03-23T14:34:19.980Z,96110.50
2023-03-23T14:36:46.604Z,96118.91
2023-03-23T14:39:13.170Z,96117.78
2023-03-23T14:41:39.722Z,96117.06
2023-03-23T14:44:06.289Z,96121.25
2023-03-23T14:46:32.884Z,96119.19
2023-03-23T14:48:59.422Z,96116.63
2023-03-23T14:51:25.966Z,96128.34
2023-03-23T14:53:52.539Z,96117.78
2023-03-23T14:56:19.095Z,96116.09
2023-03-23T14:58:45.648Z,96118.72
2023-03-23T15:01:12.227Z,96117.88
2023-03-23T15:03:38.811Z,96104.03
2023-03-23T15:06:05.381Z,96102.50
2023-03-23T15:08:31.947Z,96108.31
2023-03-23T15:10:58.525Z,96090.09
2023-03-23T15:13:25.099Z,96090.88
2023-03-23T15:15:51.653Z,96087.16
2023-03-23T15:18:18.205Z,96090.16
2023-03-23T15:20:44.810Z,96093.59
2023-03-23T15:23:11.418Z,96088.31
2023-03-23T15:25:37.990Z,96094.00
2023-03-23T15:28:04.531Z,96088.41
2023-03-23T15:30:31.073Z,96087.56
2023-03-23T15:32:57.633Z,96081.41
2023-03-23T15:35:24.195Z,96078.38
2023-03-23T15:37:50.767Z,96079.59
2023-03-23T15:40:17.336Z,96079.31
2023-03-23T15:42:43.902Z,96086.56
2023-03-23T15:45:10.444Z,96089.88
2023-03-23T15:47:37.723Z,96087.38
2023-03-23T15:50:05.375Z,96085.66
2023-03-23T15:52:31.938Z,96086.31
2023-03-23T15:54:58.508Z,96094.09
2023-03-23T15:57:25.066Z,96095.38
2023-03-23T15:59:51.627Z,96096.41
2023-03-23T16:02:18.227Z,96090.31
2023-03-23T16:04:46.950Z,96083.91
2023-03-23T16:07:14.547Z,96081.81
2023-03-23T16:09:41.096Z,96081.34
2023-03-23T16:12:07.645Z,96084.50
2023-03-23T16:14:34.198Z,96079.84
2023-03-23T16:17:00.771Z,96081.47
2023-03-23T16:19:27.381Z,96078.69
2023-03-23T16:21:53.939Z,96083.38
2023-03-23T16:24:20.556Z,96081.59
2023-03-23T16:26:47.127Z,96085.34
2023-03-23T16:29:22.290Z,96085.41
2023-03-23T16:31:55.407Z,96077.94
2023-03-23T16:34:22.223Z,96081.81
2023-03-23T16:36:48.853Z,96088.13
2023-03-23T16:39:15.427Z,96062.16
2023-03-23T16:41:41.977Z,96071.47
2023-03-23T16:44:08.517Z,96070.22
2023-03-23T16:46:35.063Z,96073.03
2023-03-23T16:49:01.620Z,96073.84
2023-03-23T16:51:28.179Z,96077.06
2023-03-23T16:53:54.744Z,96072.59
2023-03-23T16:56:21.303Z,96070.25
2023-03-23T16:58:47.851Z,96066.34
2023-03-23T17:01:14.442Z,96076.84
2023-03-23T17:03:42.668Z,96061.69
2023-03-23T17:06:10.416Z,96070.84
2023-03-23T17:08:36.971Z,96069.28
2023-03-23T17:11:03.519Z,96064.63
2023-03-23T17:13:30.060Z,96072.28
2023-03-23T17:15:56.658Z,96063.06
2023-03-23T17:18:23.314Z,96067.97
2023-03-23T17:20:49.871Z,96067.16
2023-03-23T17:23:16.408Z,96066.69
2023-03-23T17:25:43.157Z,96063.06
2023-03-23T17:28:09.866Z,96050.97
2023-03-23T17:30:36.437Z,96059.25
2023-03-23T17:33:03.063Z,96064.50
2023-03-23T17:35:29.679Z,96059.81
2023-03-23T17:37:56.274Z,96057.09
2023-03-23T17:40:22.831Z,96052.38
2023-03-23T17:42:49.373Z,96054.25
2023-03-23T17:45:15.940Z,96048.00
2023-03-23T17:47:42.579Z,96051.63
2023-03-23T17:50:12.327Z,96054.19
2023-03-23T17:52:39.356Z,96044.16
2023-03-23T17:55:05.927Z,96049.97
2023-03-23T17:57:32.479Z,96050.53
2023-03-23T17:59:59.023Z,96050.50
2023-03-23T18:02:25.627Z,96039.91
2023-03-23T18:04:52.189Z,96045.56
2023-03-23T18:07:18.758Z,96043.34
2023-03-23T18:09:45.784Z,96035.00
2023-03-23T18:12:12.348Z,96036.81
2023-03-23T18:14:38.882Z,96036.75
2023-03-23T18:17:05.434Z,96037.59
2023-03-23T18:19:31.978Z,96032.91
2023-03-23T18:21:58.585Z,96034.56
2023-03-23T18:24:25.156Z,96034.06
2023-03-23T18:26:51.700Z,96030.78
2023-03-23T18:29:18.381Z,96028.56
2023-03-23T18:31:44.966Z,96038.53
2023-03-23T18:34:11.559Z,96032.03
2023-03-23T18:36:38.121Z,96020.38
2023-03-23T18:39:04.677Z,96025.00
2023-03-23T18:41:31.225Z,96033.50
2023-03-23T18:43:58.002Z,96022.56
2023-03-23T18:46:24.665Z,96030.31
2023-03-23T18:48:51.238Z,96036.75
2023-03-23T18:51:17.797Z,96035.78
2023-03-23T18:53:44.359Z,96037.84
2023-03-23T18:56:10.934Z,96039.13
2023-03-23T18:58:37.472Z,96035.06
2023-03-23T19:01:04.056Z,96040.25
2023-03-23T19:03:30.696Z,96043.34
2023-03-23T19:05:57.290Z,96043.44
2023-03-23T19:08:23.853Z,96038.66
2023-03-23T19:10:50.410Z,96027.97
2023-03-23T19:13:16.979Z,96032.72
2023-03-23T19:15:43.832Z,96026.44
2023-03-23T19:18:10.586Z,96025.00
2023-03-23T19:21:09.573Z,96030.16
2023-03-23T19:23:23.704Z,96028.66
2023-03-23T19:25:50.263Z,96022.47
2023-03-23T19:30:46.278Z,96011.09
2023-03-23T19:33:12.878Z,96017.63
2023-03-23T19:35:39.549Z,96020.69
2023-03-23T19:38:06.153Z,96012.31
2023-03-23T19:40:40.478Z,96006.69
2023-03-23T19:43:08.878Z,96005.59
2023-03-23T19:45:35.569Z,96006.53
2023-03-23T19:48:02.193Z,95997.59
2023-03-23T19:50:28.823Z,95993.13
2023-03-23T19:52:58.308Z,95999.09
2023-03-23T19:55:26.174Z,95994.94
2023-03-23T19:57:52.743Z,95988.72
2023-03-23T20:00:19.449Z,95995.50
2023-03-23T20:02:46.092Z,95984.03
2023-03-23T20:05:12.726Z,95987.59
2023-03-23T20:07:41.145Z,95986.41
2023-03-23T20:10:08.312Z,95985.41
2023-03-23T20:12:35.460Z,95982.44
2023-03-23T20:15:02.135Z,95976.69
2023-03-23T20:17:28.710Z,95981.97
2023-03-23T20:19:55.847Z,95976.31
2023-03-23T20:22:22.500Z,95977.81
2023-03-23T20:24:49.503Z,95976.69
2023-03-23T20:27:16.092Z,95988.47
2023-03-23T20:29:42.660Z,95986.19
2023-03-23T20:32:09.214Z,95983.69
2023-03-23T20:34:35.764Z,95986.09
2023-03-23T20:37:02.319Z,95983.25
2023-03-23T20:39:28.897Z,95985.28
2023-03-23T20:41:55.436Z,95984.75
2023-03-23T20:44:22.017Z,95996.38
2023-03-23T20:46:48.595Z,95998.75
2023-03-23T20:49:15.143Z,96003.00
2023-03-23T20:51:41.729Z,96019.59
2023-03-23T20:54:08.286Z,96029.97
2023-03-23T20:56:34.949Z,96028.84
2023-03-23T20:59:01.532Z,96012.94
2023-03-23T21:01:28.127Z,96010.75
2023-03-23T21:03:54.705Z,96020.47
2023-03-23T21:06:21.262Z,96031.63
2023-03-23T21:08:47.807Z,96022.38
2023-03-23T21:11:14.354Z,96024.81
2023-03-23T21:13:40.903Z,96019.22
2023-03-23T21:16:07.486Z,96022.75
2023-03-23T21:18:34.252Z,96031.16
2023-03-23T21:21:00.855Z,96010.22
2023-03-23T21:23:27.419Z,96016.16
2023-03-23T21:25:54.183Z,95983.03
2023-03-23T21:28:20.716Z,95984.44
2023-03-23T21:30:47.677Z,95948.31
2023-03-23T21:33:14.497Z,95948.00
2023-03-23T21:35:41.062Z,95945.47
2023-03-23T21:38:07.625Z,95974.66
2023-03-23T21:40:34.179Z,95978.13
2023-03-23T21:43:00.726Z,95985.22
2023-03-23T21:45:27.282Z,95981.06
2023-03-23T21:47:53.888Z,95974.91
2023-03-23T21:50:20.470Z,95980.16
2023-03-23T21:52:47.031Z,95970.31
2023-03-23T21:55:13.598Z,95970.38
2023-03-23T21:57:40.156Z,95975.72
2023-03-23T22:00:06.691Z,95962.03
2023-03-23T22:02:33.232Z,95971.22
2023-03-23T22:04:59.777Z,95974.16
2023-03-23T22:07:26.342Z,95970.84
2023-03-23T22:09:52.902Z,95960.50
2023-03-23T22:12:19.447Z,95958.03
2023-03-23T22:14:45.998Z,95970.69
2023-03-23T22:17:12.544Z,95956.84
2023-03-23T22:19:39.117Z,95968.47
2023-03-23T22:22:05.660Z,95960.53
2023-03-23T22:24:32.214Z,95954.59
2023-03-23T22:26:58.787Z,95958.50
2023-03-23T22:29:25.397Z,95955.41
2023-03-23T22:31:51.993Z,95945.34
2023-03-23T22:34:18.607Z,95947.22
2023-03-23T22:36:45.154Z,95973.38
2023-03-23T22:39:11.741Z,95987.03
2023-03-23T22:41:38.306Z,95975.53
2023-03-23T22:44:04.843Z,95960.34
2023-03-23T22:46:31.408Z,95947.44
2023-03-23T22:48:57.968Z,95961.66
2023-03-23T22:51:24.527Z,95973.09
2023-03-23T22:53:51.099Z,95966.16
2023-03-23T22:56:17.671Z,95955.84
2023-03-23T22:58:44.226Z,95931.94
2023-03-23T23:01:10.832Z,95944.84
2023-03-23T23:03:37.493Z,95941.50
2023-03-23T23:06:04.060Z,95938.44
2023-03-23T23:08:30.625Z,95928.81
2023-03-23T23:10:57.182Z,95919.56
2023-03-23T23:13:23.756Z,95925.13
2023-03-23T23:15:50.320Z,95933.34
2023-03-23T23:18:16.866Z,95916.31
2023-03-23T23:20:43.587Z,95925.53
2023-03-23T23:23:10.256Z,95931.59
2023-03-23T23:25:36.844Z,95934.19
2023-03-23T23:28:03.418Z,95924.72
2023-03-23T23:30:30.030Z,95937.56
2023-03-23T23:32:56.634Z,95926.16
2023-03-23T23:35:23.332Z,95944.00
2023-03-23T23:37:49.896Z,95938.19
2023-03-23T23:40:16.432Z,95916.53
2023-03-23T23:42:42.994Z,95910.16
2023-03-23T23:45:09.571Z,95928.97
2023-03-23T23:47:36.272Z,95930.50
2023-03-23T23:50:02.851Z,95944.16
2023-03-23T23:52:29.436Z,95947.72
2023-03-23T23:54:55.987Z,95948.78
2023-03-23T23:57:22.554Z,95947.19
2023-03-23T23:59:49.099Z,95938.84
